Terminal Aerodrome Forecast
Issued by NWS

Home | Current Version | Previous Version | Text Only | Print | Product List | Glossary On
Versions: 1 2 3 4 5 6 7 8 9 10 11 12 13 14
000
FTUS46 KLOX 142300 RRA
TAFSBA
TAF
KSBA 142345Z 1500/1524 18004KT P6SM FEW100
     FM150300 VRB03KT P6SM SKC
     FM151300 10003KT 6SM BR FEW004
     FM151600 17005KT P6SM SKC
     FM152000 25008KT P6SM FEW100=

USA.gov is the U.S. government's official web portal to all federal, state and local government web resources and services.